sensor_id;sensor_type;location;lat;lon;timestamp;P1;durP1;ratioP1;P2;durP2;ratioP2
61473;SDS011;53694;49.784;30.150;2023-04-03T00:00:47;9.26;;;4.49;;
61473;SDS011;53694;49.784;30.150;2023-04-03T00:01:48;8.52;;;4.54;;
61473;SDS011;53694;49.784;30.150;2023-04-03T00:02:50;7.49;;;4.21;;
61473;SDS011;53694;49.784;30.150;2023-04-03T00:03:51;7.81;;;4.65;;
61473;SDS011;53694;49.784;30.150;2023-04-03T00:04:53;8.06;;;5.14;;
61473;SDS011;53694;49.784;30.150;2023-04-03T00:05:54;9.49;;;5.16;;
61473;SDS011;53694;49.784;30.150;2023-04-03T00:06:56;10.21;;;5.15;;
61473;SDS011;53694;49.784;30.150;2023-04-03T00:07:58;10.24;;;6.22;;
61473;SDS011;53694;49.784;30.150;2023-04-03T00:08:59;9.09;;;5.86;;
61473;SDS011;53694;49.784;30.150;2023-04-03T00:10:01;10.72;;;6.19;;
61473;SDS011;53694;49.784;30.150;2023-04-03T00:11:03;10.28;;;5.77;;
61473;SDS011;53694;49.784;30.150;2023-04-03T00:12:06;9.25;;;5.41;;
61473;SDS011;53694;49.784;30.150;2023-04-03T00:13:07;10.47;;;5.35;;
61473;SDS011;53694;49.784;30.150;2023-04-03T00:14:09;9.11;;;4.68;;
61473;SDS011;53694;49.784;30.150;2023-04-03T00:15:10;8.19;;;4.75;;
61473;SDS011;53694;49.784;30.150;2023-04-03T00:16:12;8.19;;;5.01;;
61473;SDS011;53694;49.784;30.150;2023-04-03T00:17:14;9.31;;;4.82;;
61473;SDS011;53694;49.784;30.150;2023-04-03T00:18:15;8.27;;;4.81;;
61473;SDS011;53694;49.784;30.150;2023-04-03T00:19:17;8.49;;;4.60;;
61473;SDS011;53694;49.784;30.150;2023-04-03T00:20:18;8.21;;;4.92;;
61473;SDS011;53694;49.784;30.150;2023-04-03T00:21:20;8.43;;;4.89;;
61473;SDS011;53694;49.784;30.150;2023-04-03T00:22:22;9.42;;;4.79;;
61473;SDS011;53694;49.784;30.150;2023-04-03T00:23:24;8.07;;;4.69;;
61473;SDS011;53694;49.784;30.150;2023-04-03T00:24:25;8.91;;;5.04;;
61473;SDS011;53694;49.784;30.150;2023-04-03T00:25:27;10.68;;;5.06;;
61473;SDS011;53694;49.784;30.150;2023-04-03T00:26:29;10.07;;;5.05;;
61473;SDS011;53694;49.784;30.150;2023-04-03T00:27:30;8.41;;;4.83;;
61473;SDS011;53694;49.784;30.150;2023-04-03T00:28:32;8.92;;;5.11;;
61473;SDS011;53694;49.784;30.150;2023-04-03T00:29:33;8.45;;;4.49;;
61473;SDS011;53694;49.784;30.150;2023-04-03T00:30:35;8.64;;;5.31;;
61473;SDS011;53694;49.784;30.150;2023-04-03T00:31:36;9.12;;;4.66;;
61473;SDS011;53694;49.784;30.150;2023-04-03T00:32:38;8.06;;;4.80;;
61473;SDS011;53694;49.784;30.150;2023-04-03T00:33:39;9.43;;;5.11;;
61473;SDS011;53694;49.784;30.150;2023-04-03T00:34:41;10.69;;;5.66;;
61473;SDS011;53694;49.784;30.150;2023-04-03T00:35:42;10.14;;;5.70;;
61473;SDS011;53694;49.784;30.150;2023-04-03T00:36:44;10.19;;;5.71;;
61473;SDS011;53694;49.784;30.150;2023-04-03T00:37:45;11.83;;;5.85;;
61473;SDS011;53694;49.784;30.150;2023-04-03T00:38:47;10.23;;;6.39;;
61473;SDS011;53694;49.784;30.150;2023-04-03T00:39:49;11.85;;;6.67;;
61473;SDS011;53694;49.784;30.150;2023-04-03T00:40:50;10.15;;;5.89;;
61473;SDS011;53694;49.784;30.150;2023-04-03T00:41:52;9.75;;;5.54;;
61473;SDS011;53694;49.784;30.150;2023-04-03T00:42:57;8.12;;;4.96;;
61473;SDS011;53694;49.784;30.150;2023-04-03T00:44:00;7.49;;;4.53;;
61473;SDS011;53694;49.784;30.150;2023-04-03T00:46:06;9.47;;;5.12;;
61473;SDS011;53694;49.784;30.150;2023-04-03T00:47:09;7.79;;;4.64;;
61473;SDS011;53694;49.784;30.150;2023-04-03T00:49:38;8.56;;;4.72;;
61473;SDS011;53694;49.784;30.150;2023-04-03T00:50:41;9.34;;;5.08;;
61473;SDS011;53694;49.784;30.150;2023-04-03T00:51:45;10.04;;;4.45;;
61473;SDS011;53694;49.784;30.150;2023-04-03T00:52:47;8.51;;;5.09;;
61473;SDS011;53694;49.784;30.150;2023-04-03T00:53:49;7.07;;;4.51;;
61473;SDS011;53694;49.784;30.150;2023-04-03T00:54:54;8.97;;;5.24;;
61473;SDS011;53694;49.784;30.150;2023-04-03T00:55:58;8.42;;;4.76;;
61473;SDS011;53694;49.784;30.150;2023-04-03T00:57:01;7.57;;;4.78;;
61473;SDS011;53694;49.784;30.150;2023-04-03T00:58:04;8.94;;;5.23;;
61473;SDS011;53694;49.784;30.150;2023-04-03T00:59:13;9.58;;;5.37;;
61473;SDS011;53694;49.784;30.150;2023-04-03T01:00:16;8.59;;;4.81;;
61473;SDS011;53694;49.784;30.150;2023-04-03T01:01:22;9.04;;;5.49;;
61473;SDS011;53694;49.784;30.150;2023-04-03T01:02:27;10.23;;;6.23;;
61473;SDS011;53694;49.784;30.150;2023-04-03T01:03:29;10.83;;;5.99;;
61473;SDS011;53694;49.784;30.150;2023-04-03T01:04:31;9.82;;;5.59;;
61473;SDS011;53694;49.784;30.150;2023-04-03T01:05:35;8.83;;;5.61;;
61473;SDS011;53694;49.784;30.150;2023-04-03T01:06:37;10.12;;;5.82;;
61473;SDS011;53694;49.784;30.150;2023-04-03T01:07:38;9.45;;;5.28;;
61473;SDS011;53694;49.784;30.150;2023-04-03T01:08:41;8.55;;;5.05;;
61473;SDS011;53694;49.784;30.150;2023-04-03T01:09:43;9.19;;;5.41;;
61473;SDS011;53694;49.784;30.150;2023-04-03T01:10:46;9.26;;;4.98;;
61473;SDS011;53694;49.784;30.150;2023-04-03T01:11:47;10.18;;;5.75;;
61473;SDS011;53694;49.784;30.150;2023-04-03T01:12:49;8.31;;;4.71;;
61473;SDS011;53694;49.784;30.150;2023-04-03T01:13:51;8.73;;;5.01;;
61473;SDS011;53694;49.784;30.150;2023-04-03T01:14:59;9.10;;;5.23;;
61473;SDS011;53694;49.784;30.150;2023-04-03T01:16:02;7.73;;;4.77;;
61473;SDS011;53694;49.784;30.150;2023-04-03T01:17:23;8.48;;;4.94;;
61473;SDS011;53694;49.784;30.150;2023-04-03T01:18:27;9.77;;;5.19;;
61473;SDS011;53694;49.784;30.150;2023-04-03T01:19:29;9.22;;;4.99;;
61473;SDS011;53694;49.784;30.150;2023-04-03T01:24:22;10.58;;;7.24;;
61473;SDS011;53694;49.784;30.150;2023-04-03T01:25:23;9.31;;;6.33;;
61473;SDS011;53694;49.784;30.150;2023-04-03T01:26:25;9.67;;;5.88;;
61473;SDS011;53694;49.784;30.150;2023-04-03T01:27:28;10.15;;;6.34;;
61473;SDS011;53694;49.784;30.150;2023-04-03T01:28:31;8.54;;;5.64;;
61473;SDS011;53694;49.784;30.150;2023-04-03T01:29:34;8.09;;;5.21;;
61473;SDS011;53694;49.784;30.150;2023-04-03T01:30:40;10.49;;;5.96;;
61473;SDS011;53694;49.784;30.150;2023-04-03T01:31:59;9.74;;;5.95;;
61473;SDS011;53694;49.784;30.150;2023-04-03T01:33:01;10.79;;;5.74;;
61473;SDS011;53694;49.784;30.150;2023-04-03T01:34:03;10.42;;;5.92;;
61473;SDS011;53694;49.784;30.150;2023-04-03T01:35:06;9.30;;;5.96;;
61473;SDS011;53694;49.784;30.150;2023-04-03T01:36:10;10.76;;;6.11;;
61473;SDS011;53694;49.784;30.150;2023-04-03T01:37:14;7.73;;;5.62;;
61473;SDS011;53694;49.784;30.150;2023-04-03T01:38:16;10.87;;;6.30;;
61473;SDS011;53694;49.784;30.150;2023-04-03T01:39:19;10.63;;;6.05;;
61473;SDS011;53694;49.784;30.150;2023-04-03T01:40:21;9.19;;;6.33;;
61473;SDS011;53694;49.784;30.150;2023-04-03T01:41:23;9.85;;;5.88;;
61473;SDS011;53694;49.784;30.150;2023-04-03T01:42:24;10.49;;;6.67;;
61473;SDS011;53694;49.784;30.150;2023-04-03T01:43:26;12.18;;;6.96;;
61473;SDS011;53694;49.784;30.150;2023-04-03T01:44:27;12.10;;;7.81;;
61473;SDS011;53694;49.784;30.150;2023-04-03T01:45:29;11.38;;;7.79;;
61473;SDS011;53694;49.784;30.150;2023-04-03T01:46:30;11.42;;;8.12;;
61473;SDS011;53694;49.784;30.150;2023-04-03T01:47:32;14.09;;;9.46;;
61473;SDS011;53694;49.784;30.150;2023-04-03T01:48:34;12.77;;;9.07;;
61473;SDS011;53694;49.784;30.150;2023-04-03T01:49:36;13.51;;;8.85;;
61473;SDS011;53694;49.784;30.150;2023-04-03T01:50:37;11.64;;;7.96;;
61473;SDS011;53694;49.784;30.150;2023-04-03T01:51:38;11.02;;;7.16;;
61473;SDS011;53694;49.784;30.150;2023-04-03T01:52:40;10.55;;;7.26;;
61473;SDS011;53694;49.784;30.150;2023-04-03T01:53:42;11.06;;;7.06;;
61473;SDS011;53694;49.784;30.150;2023-04-03T01:54:43;14.09;;;7.07;;
61473;SDS011;53694;49.784;30.150;2023-04-03T01:55:45;10.69;;;6.57;;
61473;SDS011;53694;49.784;30.150;2023-04-03T01:56:46;10.08;;;6.40;;
61473;SDS011;53694;49.784;30.150;2023-04-03T01:57:48;10.16;;;6.44;;
61473;SDS011;53694;49.784;30.150;2023-04-03T01:58:49;10.59;;;6.76;;
61473;SDS011;53694;49.784;30.150;2023-04-03T01:59:51;9.11;;;6.69;;
61473;SDS011;53694;49.784;30.150;2023-04-03T02:00:52;11.34;;;6.65;;
61473;SDS011;53694;49.784;30.150;2023-04-03T02:01:54;10.21;;;6.84;;
61473;SDS011;53694;49.784;30.150;2023-04-03T02:02:56;9.35;;;6.29;;
61473;SDS011;53694;49.784;30.150;2023-04-03T02:03:57;8.46;;;5.92;;
61473;SDS011;53694;49.784;30.150;2023-04-03T02:04:59;11.66;;;6.84;;
61473;SDS011;53694;49.784;30.150;2023-04-03T02:06:00;10.46;;;6.90;;
61473;SDS011;53694;49.784;30.150;2023-04-03T02:07:02;8.95;;;6.25;;
61473;SDS011;53694;49.784;30.150;2023-04-03T02:08:04;10.04;;;6.57;;
61473;SDS011;53694;49.784;30.150;2023-04-03T02:09:06;9.00;;;6.19;;
61473;SDS011;53694;49.784;30.150;2023-04-03T02:10:08;9.82;;;6.52;;
61473;SDS011;53694;49.784;30.150;2023-04-03T02:11:10;11.20;;;7.73;;
61473;SDS011;53694;49.784;30.150;2023-04-03T02:12:11;12.53;;;8.54;;
61473;SDS011;53694;49.784;30.150;2023-04-03T02:13:13;12.46;;;8.61;;
61473;SDS011;53694;49.784;30.150;2023-04-03T02:14:14;12.14;;;8.39;;
61473;SDS011;53694;49.784;30.150;2023-04-03T02:15:16;12.49;;;9.31;;
61473;SDS011;53694;49.784;30.150;2023-04-03T02:16:18;13.79;;;8.93;;
61473;SDS011;53694;49.784;30.150;2023-04-03T02:17:19;11.35;;;7.51;;
61473;SDS011;53694;49.784;30.150;2023-04-03T02:18:21;10.52;;;7.02;;
61473;SDS011;53694;49.784;30.150;2023-04-03T02:19:22;12.29;;;6.91;;
61473;SDS011;53694;49.784;30.150;2023-04-03T02:20:24;10.18;;;6.65;;
61473;SDS011;53694;49.784;30.150;2023-04-03T02:21:26;11.82;;;6.96;;
61473;SDS011;53694;49.784;30.150;2023-04-03T02:22:27;11.12;;;7.14;;
61473;SDS011;53694;49.784;30.150;2023-04-03T02:23:29;12.28;;;7.14;;
61473;SDS011;53694;49.784;30.150;2023-04-03T02:24:31;10.79;;;6.97;;
61473;SDS011;53694;49.784;30.150;2023-04-03T02:25:33;10.47;;;6.61;;
61473;SDS011;53694;49.784;30.150;2023-04-03T02:26:35;9.96;;;6.96;;
61473;SDS011;53694;49.784;30.150;2023-04-03T02:27:36;10.68;;;6.49;;
61473;SDS011;53694;49.784;30.150;2023-04-03T02:28:38;10.58;;;6.83;;
61473;SDS011;53694;49.784;30.150;2023-04-03T02:29:39;10.13;;;6.87;;
61473;SDS011;53694;49.784;30.150;2023-04-03T02:30:41;10.54;;;6.99;;
61473;SDS011;53694;49.784;30.150;2023-04-03T02:31:43;9.95;;;6.59;;
61473;SDS011;53694;49.784;30.150;2023-04-03T02:32:44;11.01;;;6.90;;
61473;SDS011;53694;49.784;30.150;2023-04-03T02:33:46;13.44;;;7.59;;
61473;SDS011;53694;49.784;30.150;2023-04-03T02:34:47;9.59;;;6.84;;
61473;SDS011;53694;49.784;30.150;2023-04-03T02:35:52;10.91;;;7.00;;
61473;SDS011;53694;49.784;30.150;2023-04-03T02:36:56;11.67;;;6.94;;
61473;SDS011;53694;49.784;30.150;2023-04-03T02:37:57;11.18;;;8.30;;
61473;SDS011;53694;49.784;30.150;2023-04-03T02:38:59;12.79;;;8.67;;
61473;SDS011;53694;49.784;30.150;2023-04-03T02:40:00;13.46;;;8.99;;
61473;SDS011;53694;49.784;30.150;2023-04-03T02:41:03;12.29;;;8.02;;
61473;SDS011;53694;49.784;30.150;2023-04-03T02:42:06;12.68;;;8.54;;
61473;SDS011;53694;49.784;30.150;2023-04-03T02:43:07;11.63;;;7.66;;
61473;SDS011;53694;49.784;30.150;2023-04-03T02:44:09;9.85;;;6.73;;
61473;SDS011;53694;49.784;30.150;2023-04-03T02:45:11;11.09;;;6.76;;
61473;SDS011;53694;49.784;30.150;2023-04-03T02:46:13;11.77;;;7.33;;
61473;SDS011;53694;49.784;30.150;2023-04-03T02:47:15;14.19;;;7.38;;
61473;SDS011;53694;49.784;30.150;2023-04-03T02:48:17;10.90;;;6.95;;
61473;SDS011;53694;49.784;30.150;2023-04-03T02:49:18;10.32;;;7.39;;
61473;SDS011;53694;49.784;30.150;2023-04-03T02:50:20;11.07;;;6.84;;
61473;SDS011;53694;49.784;30.150;2023-04-03T02:51:21;11.71;;;7.14;;
61473;SDS011;53694;49.784;30.150;2023-04-03T02:52:23;10.79;;;6.97;;
61473;SDS011;53694;49.784;30.150;2023-04-03T02:53:25;9.88;;;6.88;;
61473;SDS011;53694;49.784;30.150;2023-04-03T02:54:26;12.30;;;7.46;;
61473;SDS011;53694;49.784;30.150;2023-04-03T02:55:27;13.06;;;8.89;;
61473;SDS011;53694;49.784;30.150;2023-04-03T02:56:29;12.67;;;8.95;;
61473;SDS011;53694;49.784;30.150;2023-04-03T02:57:30;13.16;;;9.04;;
61473;SDS011;53694;49.784;30.150;2023-04-03T02:58:32;14.04;;;10.01;;
61473;SDS011;53694;49.784;30.150;2023-04-03T02:59:34;14.16;;;9.34;;
61473;SDS011;53694;49.784;30.150;2023-04-03T03:00:39;12.32;;;9.18;;
61473;SDS011;53694;49.784;30.150;2023-04-03T03:01:40;11.19;;;7.96;;
61473;SDS011;53694;49.784;30.150;2023-04-03T03:02:42;12.66;;;7.86;;
61473;SDS011;53694;49.784;30.150;2023-04-03T03:03:43;12.16;;;7.91;;
61473;SDS011;53694;49.784;30.150;2023-04-03T03:04:45;11.81;;;7.52;;
61473;SDS011;53694;49.784;30.150;2023-04-03T03:05:47;11.01;;;7.74;;
61473;SDS011;53694;49.784;30.150;2023-04-03T03:06:48;11.79;;;7.74;;
61473;SDS011;53694;49.784;30.150;2023-04-03T03:07:50;10.65;;;6.98;;
61473;SDS011;53694;49.784;30.150;2023-04-03T03:08:51;12.91;;;7.52;;
61473;SDS011;53694;49.784;30.150;2023-04-03T03:09:53;11.17;;;7.96;;
61473;SDS011;53694;49.784;30.150;2023-04-03T03:10:54;10.97;;;7.54;;
61473;SDS011;53694;49.784;30.150;2023-04-03T03:11:56;12.68;;;7.23;;
61473;SDS011;53694;49.784;30.150;2023-04-03T03:12:58;9.66;;;6.79;;
61473;SDS011;53694;49.784;30.150;2023-04-03T03:13:59;12.13;;;7.61;;
61473;SDS011;53694;49.784;30.150;2023-04-03T03:15:01;12.74;;;8.21;;
61473;SDS011;53694;49.784;30.150;2023-04-03T03:16:02;12.11;;;7.54;;
61473;SDS011;53694;49.784;30.150;2023-04-03T03:17:04;14.02;;;7.74;;
61473;SDS011;53694;49.784;30.150;2023-04-03T03:18:06;11.31;;;8.48;;
61473;SDS011;53694;49.784;30.150;2023-04-03T03:19:07;13.26;;;7.82;;
61473;SDS011;53694;49.784;30.150;2023-04-03T03:20:11;10.63;;;7.54;;
61473;SDS011;53694;49.784;30.150;2023-04-03T03:21:13;12.73;;;7.65;;
61473;SDS011;53694;49.784;30.150;2023-04-03T03:22:16;11.79;;;7.26;;
61473;SDS011;53694;49.784;30.150;2023-04-03T03:23:17;11.84;;;6.89;;
61473;SDS011;53694;49.784;30.150;2023-04-03T03:24:19;10.27;;;7.06;;
61473;SDS011;53694;49.784;30.150;2023-04-03T03:25:21;10.94;;;6.71;;
61473;SDS011;53694;49.784;30.150;2023-04-03T03:26:22;11.19;;;6.91;;
61473;SDS011;53694;49.784;30.150;2023-04-03T03:27:24;11.34;;;7.13;;
61473;SDS011;53694;49.784;30.150;2023-04-03T03:28:25;9.97;;;6.71;;
61473;SDS011;53694;49.784;30.150;2023-04-03T03:29:27;10.95;;;7.35;;
61473;SDS011;53694;49.784;30.150;2023-04-03T03:30:29;12.19;;;7.76;;
61473;SDS011;53694;49.784;30.150;2023-04-03T03:31:30;13.46;;;8.36;;
61473;SDS011;53694;49.784;30.150;2023-04-03T03:32:32;10.89;;;7.56;;
61473;SDS011;53694;49.784;30.150;2023-04-03T03:33:33;13.86;;;8.34;;
61473;SDS011;53694;49.784;30.150;2023-04-03T03:34:35;13.76;;;7.61;;
61473;SDS011;53694;49.784;30.150;2023-04-03T03:35:37;10.86;;;7.43;;
61473;SDS011;53694;49.784;30.150;2023-04-03T03:36:38;11.09;;;7.57;;
61473;SDS011;53694;49.784;30.150;2023-04-03T03:37:40;11.94;;;7.10;;
61473;SDS011;53694;49.784;30.150;2023-04-03T03:38:42;10.51;;;6.84;;
61473;SDS011;53694;49.784;30.150;2023-04-03T03:39:43;12.39;;;7.41;;
61473;SDS011;53694;49.784;30.150;2023-04-03T03:40:46;12.34;;;7.23;;
61473;SDS011;53694;49.784;30.150;2023-04-03T03:41:48;10.39;;;7.22;;
61473;SDS011;53694;49.784;30.150;2023-04-03T03:42:50;11.66;;;7.04;;
61473;SDS011;53694;49.784;30.150;2023-04-03T03:43:51;9.81;;;6.52;;
61473;SDS011;53694;49.784;30.150;2023-04-03T03:44:53;11.39;;;6.96;;
61473;SDS011;53694;49.784;30.150;2023-04-03T03:45:54;11.61;;;7.03;;
61473;SDS011;53694;49.784;30.150;2023-04-03T03:46:56;12.61;;;7.08;;
61473;SDS011;53694;49.784;30.150;2023-04-03T03:47:58;11.76;;;6.86;;
61473;SDS011;53694;49.784;30.150;2023-04-03T03:49:00;11.53;;;6.98;;
61473;SDS011;53694;49.784;30.150;2023-04-03T03:50:02;10.43;;;7.10;;
61473;SDS011;53694;49.784;30.150;2023-04-03T03:51:04;13.07;;;7.81;;
61473;SDS011;53694;49.784;30.150;2023-04-03T03:52:05;14.17;;;9.15;;
61473;SDS011;53694;49.784;30.150;2023-04-03T03:53:07;15.24;;;9.29;;
61473;SDS011;53694;49.784;30.150;2023-04-03T03:54:09;13.14;;;8.63;;
61473;SDS011;53694;49.784;30.150;2023-04-03T03:55:10;15.22;;;10.44;;
61473;SDS011;53694;49.784;30.150;2023-04-03T03:56:13;14.18;;;9.24;;
61473;SDS011;53694;49.784;30.150;2023-04-03T03:57:15;12.26;;;8.30;;
61473;SDS011;53694;49.784;30.150;2023-04-03T03:58:16;13.81;;;7.42;;
61473;SDS011;53694;49.784;30.150;2023-04-03T03:59:18;12.64;;;7.22;;
61473;SDS011;53694;49.784;30.150;2023-04-03T04:00:19;11.35;;;8.19;;
61473;SDS011;53694;49.784;30.150;2023-04-03T04:01:21;10.84;;;7.34;;
61473;SDS011;53694;49.784;30.150;2023-04-03T04:02:24;12.79;;;8.00;;
61473;SDS011;53694;49.784;30.150;2023-04-03T04:03:25;12.80;;;8.09;;
61473;SDS011;53694;49.784;30.150;2023-04-03T04:04:27;10.80;;;7.25;;
61473;SDS011;53694;49.784;30.150;2023-04-03T04:05:28;12.62;;;7.46;;
61473;SDS011;53694;49.784;30.150;2023-04-03T04:06:30;11.65;;;7.55;;
61473;SDS011;53694;49.784;30.150;2023-04-03T04:07:32;14.38;;;7.74;;
61473;SDS011;53694;49.784;30.150;2023-04-03T04:08:33;11.26;;;7.11;;
61473;SDS011;53694;49.784;30.150;2023-04-03T04:09:35;12.29;;;7.14;;
61473;SDS011;53694;49.784;30.150;2023-04-03T04:10:36;11.06;;;6.81;;
61473;SDS011;53694;49.784;30.150;2023-04-03T04:11:39;14.48;;;8.65;;
61473;SDS011;53694;49.784;30.150;2023-04-03T04:12:40;13.08;;;8.33;;
61473;SDS011;53694;49.784;30.150;2023-04-03T04:13:41;13.94;;;7.94;;
61473;SDS011;53694;49.784;30.150;2023-04-03T04:14:43;16.68;;;8.93;;
61473;SDS011;53694;49.784;30.150;2023-04-03T04:15:44;17.44;;;10.54;;
61473;SDS011;53694;49.784;30.150;2023-04-03T04:16:46;17.87;;;10.52;;
61473;SDS011;53694;49.784;30.150;2023-04-03T04:17:48;16.57;;;9.69;;
61473;SDS011;53694;49.784;30.150;2023-04-03T04:18:50;15.32;;;8.95;;
61473;SDS011;53694;49.784;30.150;2023-04-03T04:19:51;12.69;;;8.36;;
61473;SDS011;53694;49.784;30.150;2023-04-03T04:20:53;12.17;;;8.12;;
61473;SDS011;53694;49.784;30.150;2023-04-03T04:21:54;12.79;;;8.50;;
61473;SDS011;53694;49.784;30.150;2023-04-03T04:22:55;11.53;;;8.05;;
61473;SDS011;53694;49.784;30.150;2023-04-03T04:23:57;13.34;;;8.05;;
61473;SDS011;53694;49.784;30.150;2023-04-03T04:24:58;12.81;;;7.91;;
61473;SDS011;53694;49.784;30.150;2023-04-03T04:26:00;11.12;;;7.87;;
61473;SDS011;53694;49.784;30.150;2023-04-03T04:27:02;13.28;;;7.86;;
61473;SDS011;53694;49.784;30.150;2023-04-03T04:28:03;11.53;;;7.85;;
61473;SDS011;53694;49.784;30.150;2023-04-03T04:29:05;11.76;;;7.58;;
61473;SDS011;53694;49.784;30.150;2023-04-03T04:30:07;14.79;;;7.06;;
61473;SDS011;53694;49.784;30.150;2023-04-03T04:31:09;11.85;;;7.33;;
61473;SDS011;53694;49.784;30.150;2023-04-03T04:32:11;14.64;;;8.45;;
61473;SDS011;53694;49.784;30.150;2023-04-03T04:33:12;13.41;;;8.74;;
61473;SDS011;53694;49.784;30.150;2023-04-03T04:34:14;14.29;;;9.14;;
61473;SDS011;53694;49.784;30.150;2023-04-03T04:35:16;15.44;;;9.67;;
61473;SDS011;53694;49.784;30.150;2023-04-03T04:36:17;16.73;;;9.45;;
61473;SDS011;53694;49.784;30.150;2023-04-03T04:37:19;14.51;;;9.19;;
61473;SDS011;53694;49.784;30.150;2023-04-03T04:38:20;11.92;;;8.14;;
61473;SDS011;53694;49.784;30.150;2023-04-03T04:39:22;12.57;;;7.97;;
61473;SDS011;53694;49.784;30.150;2023-04-03T04:40:24;12.11;;;7.34;;
61473;SDS011;53694;49.784;30.150;2023-04-03T04:41:25;13.85;;;7.66;;
61473;SDS011;53694;49.784;30.150;2023-04-03T04:42:27;11.80;;;7.21;;
61473;SDS011;53694;49.784;30.150;2023-04-03T04:43:28;13.33;;;7.51;;
61473;SDS011;53694;49.784;30.150;2023-04-03T04:44:30;12.41;;;7.41;;
61473;SDS011;53694;49.784;30.150;2023-04-03T04:45:32;12.61;;;6.99;;
61473;SDS011;53694;49.784;30.150;2023-04-03T04:46:33;10.02;;;6.46;;
61473;SDS011;53694;49.784;30.150;2023-04-03T04:47:35;11.99;;;7.39;;
61473;SDS011;53694;49.784;30.150;2023-04-03T04:48:36;12.88;;;7.06;;
61473;SDS011;53694;49.784;30.150;2023-04-03T04:49:38;12.67;;;7.21;;
61473;SDS011;53694;49.784;30.150;2023-04-03T04:50:40;12.01;;;7.98;;
61473;SDS011;53694;49.784;30.150;2023-04-03T04:51:41;11.73;;;7.63;;
61473;SDS011;53694;49.784;30.150;2023-04-03T04:52:43;12.90;;;7.56;;
61473;SDS011;53694;49.784;30.150;2023-04-03T04:53:44;13.76;;;7.94;;
61473;SDS011;53694;49.784;30.150;2023-04-03T04:54:46;10.31;;;7.49;;
61473;SDS011;53694;49.784;30.150;2023-04-03T04:55:47;13.09;;;8.48;;
61473;SDS011;53694;49.784;30.150;2023-04-03T04:56:49;16.08;;;9.92;;
61473;SDS011;53694;49.784;30.150;2023-04-03T04:57:51;13.34;;;7.93;;
61473;SDS011;53694;49.784;30.150;2023-04-03T04:58:53;10.60;;;6.96;;
61473;SDS011;53694;49.784;30.150;2023-04-03T04:59:54;11.61;;;7.61;;
61473;SDS011;53694;49.784;30.150;2023-04-03T05:00:59;11.11;;;7.09;;
61473;SDS011;53694;49.784;30.150;2023-04-03T05:02:02;11.86;;;7.57;;
61473;SDS011;53694;49.784;30.150;2023-04-03T05:03:04;14.07;;;8.03;;
61473;SDS011;53694;49.784;30.150;2023-04-03T05:04:06;10.49;;;7.03;;
61473;SDS011;53694;49.784;30.150;2023-04-03T05:05:07;10.13;;;6.91;;
61473;SDS011;53694;49.784;30.150;2023-04-03T05:06:09;10.79;;;7.23;;
61473;SDS011;53694;49.784;30.150;2023-04-03T05:07:11;12.11;;;7.08;;
61473;SDS011;53694;49.784;30.150;2023-04-03T05:08:13;11.34;;;6.99;;
61473;SDS011;53694;49.784;30.150;2023-04-03T05:09:14;11.36;;;6.71;;
61473;SDS011;53694;49.784;30.150;2023-04-03T05:10:16;10.22;;;6.66;;
61473;SDS011;53694;49.784;30.150;2023-04-03T05:11:17;10.21;;;7.20;;
61473;SDS011;53694;49.784;30.150;2023-04-03T05:12:19;11.09;;;7.57;;
61473;SDS011;53694;49.784;30.150;2023-04-03T05:13:20;15.09;;;9.56;;
61473;SDS011;53694;49.784;30.150;2023-04-03T05:14:22;14.12;;;8.45;;
61473;SDS011;53694;49.784;30.150;2023-04-03T05:15:24;13.32;;;8.90;;
61473;SDS011;53694;49.784;30.150;2023-04-03T05:16:25;13.21;;;9.13;;
61473;SDS011;53694;49.784;30.150;2023-04-03T05:17:27;12.35;;;8.75;;
61473;SDS011;53694;49.784;30.150;2023-04-03T05:18:29;11.86;;;7.73;;
61473;SDS011;53694;49.784;30.150;2023-04-03T05:19:30;11.31;;;7.22;;
61473;SDS011;53694;49.784;30.150;2023-04-03T05:20:32;10.35;;;7.09;;
61473;SDS011;53694;49.784;30.150;2023-04-03T05:21:34;12.75;;;7.33;;
61473;SDS011;53694;49.784;30.150;2023-04-03T05:22:35;12.39;;;7.00;;
61473;SDS011;53694;49.784;30.150;2023-04-03T05:23:37;11.48;;;6.96;;
61473;SDS011;53694;49.784;30.150;2023-04-03T05:24:39;10.07;;;6.46;;
61473;SDS011;53694;49.784;30.150;2023-04-03T05:25:40;11.21;;;7.31;;
61473;SDS011;53694;49.784;30.150;2023-04-03T05:26:42;10.41;;;6.71;;
61473;SDS011;53694;49.784;30.150;2023-04-03T05:27:44;10.85;;;6.32;;
61473;SDS011;53694;49.784;30.150;2023-04-03T05:28:45;9.51;;;6.41;;
61473;SDS011;53694;49.784;30.150;2023-04-03T05:29:47;13.06;;;6.68;;
61473;SDS011;53694;49.784;30.150;2023-04-03T05:30:55;12.84;;;6.24;;
61473;SDS011;53694;49.784;30.150;2023-04-03T05:31:58;12.04;;;6.76;;
61473;SDS011;53694;49.784;30.150;2023-04-03T05:32:59;10.02;;;6.66;;
61473;SDS011;53694;49.784;30.150;2023-04-03T05:34:01;11.80;;;6.63;;
61473;SDS011;53694;49.784;30.150;2023-04-03T05:35:03;11.88;;;7.43;;
61473;SDS011;53694;49.784;30.150;2023-04-03T05:36:06;12.45;;;8.31;;
61473;SDS011;53694;49.784;30.150;2023-04-03T05:37:08;13.69;;;8.73;;
61473;SDS011;53694;49.784;30.150;2023-04-03T05:38:10;12.76;;;8.23;;
61473;SDS011;53694;49.784;30.150;2023-04-03T05:39:11;11.69;;;8.02;;
61473;SDS011;53694;49.784;30.150;2023-04-03T05:40:13;11.57;;;8.18;;
61473;SDS011;53694;49.784;30.150;2023-04-03T05:41:15;13.28;;;7.88;;
61473;SDS011;53694;49.784;30.150;2023-04-03T05:42:17;11.49;;;7.73;;
61473;SDS011;53694;49.784;30.150;2023-04-03T05:43:18;11.79;;;8.13;;
61473;SDS011;53694;49.784;30.150;2023-04-03T05:44:20;10.11;;;7.07;;
61473;SDS011;53694;49.784;30.150;2023-04-03T05:45:21;12.07;;;7.11;;
61473;SDS011;53694;49.784;30.150;2023-04-03T05:46:23;12.54;;;7.66;;
61473;SDS011;53694;49.784;30.150;2023-04-03T05:47:24;10.49;;;7.68;;
61473;SDS011;53694;49.784;30.150;2023-04-03T05:48:26;11.74;;;7.38;;
61473;SDS011;53694;49.784;30.150;2023-04-03T05:49:27;14.42;;;9.22;;
61473;SDS011;53694;49.784;30.150;2023-04-03T05:50:29;11.94;;;7.71;;
61473;SDS011;53694;49.784;30.150;2023-04-03T05:51:32;12.11;;;8.81;;
61473;SDS011;53694;49.784;30.150;2023-04-03T05:52:40;13.46;;;8.86;;
61473;SDS011;53694;49.784;30.150;2023-04-03T05:53:44;14.47;;;9.31;;
61473;SDS011;53694;49.784;30.150;2023-04-03T05:54:47;14.58;;;9.64;;
61473;SDS011;53694;49.784;30.150;2023-04-03T05:55:49;13.10;;;9.62;;
61473;SDS011;53694;49.784;30.150;2023-04-03T05:56:51;14.31;;;8.98;;
61473;SDS011;53694;49.784;30.150;2023-04-03T05:57:52;14.35;;;8.70;;
61473;SDS011;53694;49.784;30.150;2023-04-03T05:58:54;10.54;;;7.57;;
61473;SDS011;53694;49.784;30.150;2023-04-03T05:59:55;11.49;;;7.28;;
61473;SDS011;53694;49.784;30.150;2023-04-03T06:00:57;9.99;;;6.96;;
61473;SDS011;53694;49.784;30.150;2023-04-03T06:01:58;9.89;;;6.94;;
61473;SDS011;53694;49.784;30.150;2023-04-03T06:03:00;10.94;;;6.93;;
61473;SDS011;53694;49.784;30.150;2023-04-03T06:04:02;9.29;;;6.35;;
61473;SDS011;53694;49.784;30.150;2023-04-03T06:05:03;10.26;;;7.11;;
61473;SDS011;53694;49.784;30.150;2023-04-03T06:06:06;9.83;;;6.43;;
61473;SDS011;53694;49.784;30.150;2023-04-03T06:07:10;8.84;;;6.18;;
61473;SDS011;53694;49.784;30.150;2023-04-03T06:08:12;8.89;;;6.27;;
61473;SDS011;53694;49.784;30.150;2023-04-03T06:09:14;8.51;;;5.87;;
61473;SDS011;53694;49.784;30.150;2023-04-03T06:10:17;9.68;;;6.87;;